sensor_id;sensor_type;location;lat;lon;timestamp;temperature;humidity
12411;DHT22;6269;51.044;13.692;2024-03-23T00:54:57;9.60;99.90
12411;DHT22;6269;51.044;13.692;2024-03-23T00:57:32;9.50;99.90
12411;DHT22;6269;51.044;13.692;2024-03-23T01:00:05;9.50;1.00
12411;DHT22;6269;51.044;13.692;2024-03-23T01:02:44;9.50;1.00
12411;DHT22;6269;51.044;13.692;2024-03-23T01:05:16;9.50;99.90
12411;DHT22;6269;51.044;13.692;2024-03-23T01:07:47;9.70;93.70
12411;DHT22;6269;51.044;13.692;2024-03-23T01:10:19;9.70;99.90
12411;DHT22;6269;51.044;13.692;2024-03-23T01:12:53;9.70;94.70
12411;DHT22;6269;51.044;13.692;2024-03-23T01:15:25;9.60;1.00
12411;DHT22;6269;51.044;13.692;2024-03-23T01:17:56;9.60;1.00
12411;DHT22;6269;51.044;13.692;2024-03-23T01:20:30;9.50;1.00
12411;DHT22;6269;51.044;13.692;2024-03-23T01:23:04;9.50;1.00
12411;DHT22;6269;51.044;13.692;2024-03-23T01:25:36;9.40;99.90
12411;DHT22;6269;51.044;13.692;2024-03-23T01:28:14;9.20;21.10
12411;DHT22;6269;51.044;13.692;2024-03-23T01:30:47;9.20;99.90
12411;DHT22;6269;51.044;13.692;2024-03-23T01:33:19;9.10;1.00
12411;DHT22;6269;51.044;13.692;2024-03-23T01:35:52;9.10;1.00
12411;DHT22;6269;51.044;13.692;2024-03-23T01:38:25;9.10;1.00
12411;DHT22;6269;51.044;13.692;2024-03-23T01:40:57;9.00;1.00
12411;DHT22;6269;51.044;13.692;2024-03-23T01:43:31;9.00;1.00
12411;DHT22;6269;51.044;13.692;2024-03-23T01:46:03;8.90;1.00
12411;DHT22;6269;51.044;13.692;2024-03-23T01:48:36;8.90;1.00
12411;DHT22;6269;51.044;13.692;2024-03-23T01:51:07;8.90;1.00
12411;DHT22;6269;51.044;13.692;2024-03-23T01:53:40;8.80;1.00
12411;DHT22;6269;51.044;13.692;2024-03-23T01:56:12;8.80;1.00
12411;DHT22;6269;51.044;13.692;2024-03-23T01:58:53;8.80;8.50
12411;DHT22;6269;51.044;13.692;2024-03-23T02:01:25;8.80;18.70
12411;DHT22;6269;51.044;13.692;2024-03-23T02:03:57;8.80;36.00
12411;DHT22;6269;51.044;13.692;2024-03-23T02:06:30;8.80;53.60
12411;DHT22;6269;51.044;13.692;2024-03-23T02:09:02;8.80;85.60
12411;DHT22;6269;51.044;13.692;2024-03-23T02:11:36;8.80;99.90
12411;DHT22;6269;51.044;13.692;2024-03-23T02:16:57;9.00;99.90
12411;DHT22;6269;51.044;13.692;2024-03-23T02:19:32;9.10;99.90
12411;DHT22;6269;51.044;13.692;2024-03-23T02:22:03;9.10;99.90
12411;DHT22;6269;51.044;13.692;2024-03-23T02:24:38;9.20;99.90
12411;DHT22;6269;51.044;13.692;2024-03-23T02:27:09;9.20;99.90
12411;DHT22;6269;51.044;13.692;2024-03-23T02:29:41;9.30;68.50
12411;DHT22;6269;51.044;13.692;2024-03-23T02:32:13;9.40;1.00
12411;DHT22;6269;51.044;13.692;2024-03-23T02:34:45;9.40;1.00
12411;DHT22;6269;51.044;13.692;2024-03-23T02:37:17;9.40;1.00
12411;DHT22;6269;51.044;13.692;2024-03-23T02:39:52;9.50;1.00
12411;DHT22;6269;51.044;13.692;2024-03-23T02:42:25;8.80;1.00
12411;DHT22;6269;51.044;13.692;2024-03-23T02:44:59;9.50;1.00
12411;DHT22;6269;51.044;13.692;2024-03-23T02:47:31;9.60;1.00
12411;DHT22;6269;51.044;13.692;2024-03-23T02:50:02;9.60;1.00
12411;DHT22;6269;51.044;13.692;2024-03-23T02:52:35;9.70;1.00
12411;DHT22;6269;51.044;13.692;2024-03-23T02:55:11;9.70;1.00
12411;DHT22;6269;51.044;13.692;2024-03-23T02:57:43;9.70;1.00
12411;DHT22;6269;51.044;13.692;2024-03-23T03:00:15;9.80;1.00
12411;DHT22;6269;51.044;13.692;2024-03-23T03:02:47;9.90;1.00
12411;DHT22;6269;51.044;13.692;2024-03-23T03:05:26;9.90;1.00
12411;DHT22;6269;51.044;13.692;2024-03-23T03:07:59;9.90;1.00
12411;DHT22;6269;51.044;13.692;2024-03-23T03:10:33;9.90;1.00
12411;DHT22;6269;51.044;13.692;2024-03-23T03:13:05;9.90;1.00
12411;DHT22;6269;51.044;13.692;2024-03-23T03:15:38;9.80;1.00
12411;DHT22;6269;51.044;13.692;2024-03-23T03:18:11;9.80;1.00
12411;DHT22;6269;51.044;13.692;2024-03-23T03:20:42;9.80;1.00
12411;DHT22;6269;51.044;13.692;2024-03-23T03:23:15;9.70;1.00
12411;DHT22;6269;51.044;13.692;2024-03-23T03:25:49;9.70;1.00
12411;DHT22;6269;51.044;13.692;2024-03-23T03:28:20;9.60;1.00
12411;DHT22;6269;51.044;13.692;2024-03-23T03:30:52;9.70;10.80
12411;DHT22;6269;51.044;13.692;2024-03-23T03:33:25;9.80;1.00
12411;DHT22;6269;51.044;13.692;2024-03-23T03:35:57;9.90;1.00
12411;DHT22;6269;51.044;13.692;2024-03-23T03:38:28;10.00;1.00
12411;DHT22;6269;51.044;13.692;2024-03-23T03:41:03;10.00;1.00
12411;DHT22;6269;51.044;13.692;2024-03-23T03:43:35;10.00;1.00
12411;DHT22;6269;51.044;13.692;2024-03-23T03:46:07;10.00;1.00
12411;DHT22;6269;51.044;13.692;2024-03-23T03:48:38;10.00;1.00
12411;DHT22;6269;51.044;13.692;2024-03-23T03:51:10;10.10;1.00
12411;DHT22;6269;51.044;13.692;2024-03-23T03:53:43;10.10;1.00
12411;DHT22;6269;51.044;13.692;2024-03-23T03:56:18;10.10;1.00
12411;DHT22;6269;51.044;13.692;2024-03-23T03:58:49;10.00;1.00
12411;DHT22;6269;51.044;13.692;2024-03-23T04:01:21;9.90;1.00
12411;DHT22;6269;51.044;13.692;2024-03-23T04:03:52;9.70;1.00
12411;DHT22;6269;51.044;13.692;2024-03-23T04:06:24;9.70;1.00
12411;DHT22;6269;51.044;13.692;2024-03-23T04:08:55;9.70;1.00
12411;DHT22;6269;51.044;13.692;2024-03-23T04:11:30;9.60;1.00
12411;DHT22;6269;51.044;13.692;2024-03-23T04:14:01;9.50;1.00
12411;DHT22;6269;51.044;13.692;2024-03-23T04:16:34;9.30;11.00
12411;DHT22;6269;51.044;13.692;2024-03-23T04:19:06;9.20;58.20
12411;DHT22;6269;51.044;13.692;2024-03-23T04:21:38;9.20;99.30
12411;DHT22;6269;51.044;13.692;2024-03-23T04:24:10;9.20;99.90
12411;DHT22;6269;51.044;13.692;2024-03-23T04:26:51;9.10;99.90
12411;DHT22;6269;51.044;13.692;2024-03-23T04:29:26;9.30;99.90
12411;DHT22;6269;51.044;13.692;2024-03-23T04:31:58;9.20;99.90
12411;DHT22;6269;51.044;13.692;2024-03-23T04:34:31;9.20;99.90
12411;DHT22;6269;51.044;13.692;2024-03-23T04:37:03;9.20;99.90
12411;DHT22;6269;51.044;13.692;2024-03-23T04:39:36;9.00;99.90
12411;DHT22;6269;51.044;13.692;2024-03-23T04:42:11;8.90;99.90
12411;DHT22;6269;51.044;13.692;2024-03-23T04:44:43;8.90;99.90
12411;DHT22;6269;51.044;13.692;2024-03-23T04:47:14;8.90;99.90
12411;DHT22;6269;51.044;13.692;2024-03-23T04:49:54;8.90;99.90
12411;DHT22;6269;51.044;13.692;2024-03-23T04:52:25;9.00;99.90
12411;DHT22;6269;51.044;13.692;2024-03-23T04:54:58;9.00;99.90
12411;DHT22;6269;51.044;13.692;2024-03-23T04:57:32;9.20;99.90
12411;DHT22;6269;51.044;13.692;2024-03-23T05:00:06;9.20;99.90
12411;DHT22;6269;51.044;13.692;2024-03-23T05:02:39;9.20;99.90
12411;DHT22;6269;51.044;13.692;2024-03-23T05:05:18;9.20;99.90
12411;DHT22;6269;51.044;13.692;2024-03-23T05:07:49;9.20;99.90
12411;DHT22;6269;51.044;13.692;2024-03-23T05:10:21;9.10;99.90
12411;DHT22;6269;51.044;13.692;2024-03-23T05:13:04;9.10;99.90
12411;DHT22;6269;51.044;13.692;2024-03-23T05:15:35;9.00;99.90
12411;DHT22;6269;51.044;13.692;2024-03-23T05:18:07;9.00;99.90
12411;DHT22;6269;51.044;13.692;2024-03-23T05:20:38;9.10;99.90
12411;DHT22;6269;51.044;13.692;2024-03-23T05:23:10;9.10;99.90
12411;DHT22;6269;51.044;13.692;2024-03-23T05:25:41;9.20;99.90
12411;DHT22;6269;51.044;13.692;2024-03-23T05:28:16;9.20;99.90
12411;DHT22;6269;51.044;13.692;2024-03-23T05:30:50;9.20;99.90
12411;DHT22;6269;51.044;13.692;2024-03-23T05:33:22;9.40;99.90
12411;DHT22;6269;51.044;13.692;2024-03-23T05:35:57;9.40;99.90
12411;DHT22;6269;51.044;13.692;2024-03-23T05:38:28;9.50;99.90
12411;DHT22;6269;51.044;13.692;2024-03-23T05:41:00;9.50;76.80
12411;DHT22;6269;51.044;13.692;2024-03-23T05:43:34;9.50;45.20
12411;DHT22;6269;51.044;13.692;2024-03-23T05:46:11;9.60;1.00
12411;DHT22;6269;51.044;13.692;2024-03-23T05:48:44;9.60;1.00
12411;DHT22;6269;51.044;13.692;2024-03-23T05:51:15;9.70;1.00
12411;DHT22;6269;51.044;13.692;2024-03-23T05:53:47;9.70;1.00
12411;DHT22;6269;51.044;13.692;2024-03-23T05:56:20;9.70;1.00
12411;DHT22;6269;51.044;13.692;2024-03-23T05:58:54;9.80;1.00
12411;DHT22;6269;51.044;13.692;2024-03-23T06:01:26;9.80;1.00
12411;DHT22;6269;51.044;13.692;2024-03-23T06:03:58;9.70;1.00
12411;DHT22;6269;51.044;13.692;2024-03-23T06:06:32;9.70;1.00
12411;DHT22;6269;51.044;13.692;2024-03-23T06:09:05;9.60;1.00
12411;DHT22;6269;51.044;13.692;2024-03-23T06:11:36;9.60;1.00
12411;DHT22;6269;51.044;13.692;2024-03-23T06:14:11;9.50;1.00
12411;DHT22;6269;51.044;13.692;2024-03-23T06:16:42;9.60;1.00
12411;DHT22;6269;51.044;13.692;2024-03-23T06:19:14;9.50;1.00
12411;DHT22;6269;51.044;13.692;2024-03-23T06:21:45;9.40;1.00
12411;DHT22;6269;51.044;13.692;2024-03-23T06:24:17;9.40;1.00
12411;DHT22;6269;51.044;13.692;2024-03-23T06:26:48;9.50;1.00
12411;DHT22;6269;51.044;13.692;2024-03-23T06:29:22;9.50;1.00
12411;DHT22;6269;51.044;13.692;2024-03-23T06:31:54;9.50;1.00
12411;DHT22;6269;51.044;13.692;2024-03-23T06:34:26;9.50;1.00
12411;DHT22;6269;51.044;13.692;2024-03-23T06:36:58;9.50;1.00
12411;DHT22;6269;51.044;13.692;2024-03-23T06:39:29;9.50;1.00
12411;DHT22;6269;51.044;13.692;2024-03-23T06:42:01;9.40;1.00
12411;DHT22;6269;51.044;13.692;2024-03-23T06:44:35;9.40;1.00
12411;DHT22;6269;51.044;13.692;2024-03-23T06:47:07;9.50;1.00
12411;DHT22;6269;51.044;13.692;2024-03-23T06:49:38;10.50;1.00
12411;DHT22;6269;51.044;13.692;2024-03-23T06:52:10;8.90;1.00
12411;DHT22;6269;51.044;13.692;2024-03-23T06:54:41;9.40;1.00
12411;DHT22;6269;51.044;13.692;2024-03-23T06:57:13;9.40;1.00
12411;DHT22;6269;51.044;13.692;2024-03-23T06:59:47;9.30;1.00
12411;DHT22;6269;51.044;13.692;2024-03-23T07:02:19;9.30;1.00
12411;DHT22;6269;51.044;13.692;2024-03-23T07:04:51;9.20;1.00
12411;DHT22;6269;51.044;13.692;2024-03-23T07:07:22;9.20;1.00
12411;DHT22;6269;51.044;13.692;2024-03-23T07:09:54;9.20;1.00
12411;DHT22;6269;51.044;13.692;2024-03-23T07:12:26;9.20;1.00
12411;DHT22;6269;51.044;13.692;2024-03-23T07:15:00;9.20;1.00
12411;DHT22;6269;51.044;13.692;2024-03-23T07:17:31;9.10;1.00
12411;DHT22;6269;51.044;13.692;2024-03-23T07:20:04;9.10;1.00
12411;DHT22;6269;51.044;13.692;2024-03-23T07:25:36;9.20;1.00
12411;DHT22;6269;51.044;13.692;2024-03-23T07:28:08;9.80;12.10
12411;DHT22;6269;51.044;13.692;2024-03-23T07:30:43;9.90;87.20
12411;DHT22;6269;51.044;13.692;2024-03-23T07:33:15;9.20;99.90
12411;DHT22;6269;51.044;13.692;2024-03-23T07:35:47;9.30;99.90
12411;DHT22;6269;51.044;13.692;2024-03-23T07:38:19;10.80;99.90
12411;DHT22;6269;51.044;13.692;2024-03-23T07:40:51;9.40;44.40
12411;DHT22;6269;51.044;13.692;2024-03-23T07:43:23;9.40;74.90
12411;DHT22;6269;51.044;13.692;2024-03-23T07:45:58;9.50;35.50
12411;DHT22;6269;51.044;13.692;2024-03-23T07:48:30;9.50;1.00
12411;DHT22;6269;51.044;13.692;2024-03-23T07:51:03;9.60;1.00
12411;DHT22;6269;51.044;13.692;2024-03-23T07:53:37;9.50;1.00
12411;DHT22;6269;51.044;13.692;2024-03-23T07:56:09;9.70;1.00
12411;DHT22;6269;51.044;13.692;2024-03-23T07:58:43;9.90;1.00
12411;DHT22;6269;51.044;13.692;2024-03-23T08:01:24;10.00;1.00
12411;DHT22;6269;51.044;13.692;2024-03-23T08:03:57;10.20;1.00
12411;DHT22;6269;51.044;13.692;2024-03-23T08:06:29;10.30;99.90
12411;DHT22;6269;51.044;13.692;2024-03-23T08:09:01;10.40;99.90
12411;DHT22;6269;51.044;13.692;2024-03-23T08:11:33;10.60;99.90
12411;DHT22;6269;51.044;13.692;2024-03-23T08:14:05;10.50;1.00
12411;DHT22;6269;51.044;13.692;2024-03-23T08:16:40;10.50;99.90
12411;DHT22;6269;51.044;13.692;2024-03-23T08:19:11;10.60;99.90
12411;DHT22;6269;51.044;13.692;2024-03-23T08:21:43;10.70;1.00
12411;DHT22;6269;51.044;13.692;2024-03-23T08:24:15;10.70;1.00
12411;DHT22;6269;51.044;13.692;2024-03-23T08:26:47;11.10;1.00
12411;DHT22;6269;51.044;13.692;2024-03-23T08:29:19;11.80;1.00
12411;DHT22;6269;51.044;13.692;2024-03-23T08:31:54;12.70;99.90
12411;DHT22;6269;51.044;13.692;2024-03-23T08:34:25;12.60;1.00
12411;DHT22;6269;51.044;13.692;2024-03-23T08:36:57;12.60;1.00
12411;DHT22;6269;51.044;13.692;2024-03-23T08:39:29;12.40;1.00
12411;DHT22;6269;51.044;13.692;2024-03-23T08:42:01;12.60;1.00
12411;DHT22;6269;51.044;13.692;2024-03-23T08:44:33;12.10;1.00
12411;DHT22;6269;51.044;13.692;2024-03-23T08:47:07;12.00;1.00
12411;DHT22;6269;51.044;13.692;2024-03-23T08:49:39;11.70;99.90
12411;DHT22;6269;51.044;13.692;2024-03-23T08:52:11;11.70;1.00
12411;DHT22;6269;51.044;13.692;2024-03-23T08:54:43;11.70;1.00
12411;DHT22;6269;51.044;13.692;2024-03-23T08:57:14;11.70;99.90
12411;DHT22;6269;51.044;13.692;2024-03-23T08:59:46;11.70;1.00
12411;DHT22;6269;51.044;13.692;2024-03-23T09:02:21;11.70;1.00
12411;DHT22;6269;51.044;13.692;2024-03-23T09:04:52;11.80;99.90
12411;DHT22;6269;51.044;13.692;2024-03-23T09:07:24;11.90;99.90
12411;DHT22;6269;51.044;13.692;2024-03-23T09:09:56;12.00;1.00
12411;DHT22;6269;51.044;13.692;2024-03-23T09:12:28;12.30;1.00
12411;DHT22;6269;51.044;13.692;2024-03-23T09:14:59;12.40;99.90
12411;DHT22;6269;51.044;13.692;2024-03-23T09:17:36;12.50;99.90
12411;DHT22;6269;51.044;13.692;2024-03-23T09:20:09;12.70;99.90
12411;DHT22;6269;51.044;13.692;2024-03-23T09:22:42;12.90;99.90
12411;DHT22;6269;51.044;13.692;2024-03-23T09:25:14;13.20;1.00
12411;DHT22;6269;51.044;13.692;2024-03-23T09:27:50;13.30;99.90
12411;DHT22;6269;51.044;13.692;2024-03-23T09:30:22;14.10;99.90
12411;DHT22;6269;51.044;13.692;2024-03-23T09:32:56;13.50;99.90
12411;DHT22;6269;51.044;13.692;2024-03-23T09:35:28;13.50;99.90
12411;DHT22;6269;51.044;13.692;2024-03-23T09:38:11;13.30;99.90
12411;DHT22;6269;51.044;13.692;2024-03-23T09:40:52;13.10;1.00
12411;DHT22;6269;51.044;13.692;2024-03-23T09:43:25;12.70;1.00
12411;DHT22;6269;51.044;13.692;2024-03-23T09:45:59;12.30;1.00
12411;DHT22;6269;51.044;13.692;2024-03-23T09:48:36;12.00;1.00
12411;DHT22;6269;51.044;13.692;2024-03-23T09:51:08;11.70;99.90
12411;DHT22;6269;51.044;13.692;2024-03-23T09:53:42;11.40;1.00
12411;DHT22;6269;51.044;13.692;2024-03-23T09:56:17;10.90;99.90
12411;DHT22;6269;51.044;13.692;2024-03-23T09:58:50;10.40;99.90
12411;DHT22;6269;51.044;13.692;2024-03-23T10:01:22;10.30;1.00
12411;DHT22;6269;51.044;13.692;2024-03-23T10:03:56;9.40;1.00
12411;DHT22;6269;51.044;13.692;2024-03-23T10:06:31;9.00;1.00
12411;DHT22;6269;51.044;13.692;2024-03-23T10:09:16;8.80;1.00
12411;DHT22;6269;51.044;13.692;2024-03-23T10:11:52;8.60;1.00
12411;DHT22;6269;51.044;13.692;2024-03-23T10:14:33;9.20;1.00
12411;DHT22;6269;51.044;13.692;2024-03-23T10:17:13;7.90;99.90
12411;DHT22;6269;51.044;13.692;2024-03-23T10:19:51;7.80;99.90
12411;DHT22;6269;51.044;13.692;2024-03-23T10:22:27;7.30;1.00
12411;DHT22;6269;51.044;13.692;2024-03-23T10:25:09;7.10;99.90
12411;DHT22;6269;51.044;13.692;2024-03-23T10:27:44;7.20;1.00
12411;DHT22;6269;51.044;13.692;2024-03-23T10:30:29;7.10;99.90
12411;DHT22;6269;51.044;13.692;2024-03-23T10:33:09;7.00;99.90
12411;DHT22;6269;51.044;13.692;2024-03-23T10:35:45;6.80;99.90
12411;DHT22;6269;51.044;13.692;2024-03-23T10:38:19;7.40;1.00
12411;DHT22;6269;51.044;13.692;2024-03-23T10:40:57;6.80;99.90
12411;DHT22;6269;51.044;13.692;2024-03-23T10:43:31;6.60;99.90
12411;DHT22;6269;51.044;13.692;2024-03-23T10:46:05;7.30;1.00
12411;DHT22;6269;51.044;13.692;2024-03-23T10:48:38;6.60;75.80
12411;DHT22;6269;51.044;13.692;2024-03-23T10:51:14;6.50;1.00
12411;DHT22;6269;51.044;13.692;2024-03-23T10:53:46;6.40;99.90
12411;DHT22;6269;51.044;13.692;2024-03-23T10:56:23;6.40;79.20
12411;DHT22;6269;51.044;13.692;2024-03-23T10:58:55;6.40;99.90
12411;DHT22;6269;51.044;13.692;2024-03-23T11:01:28;6.30;99.90
12411;DHT22;6269;51.044;13.692;2024-03-23T11:04:02;6.40;99.90
12411;DHT22;6269;51.044;13.692;2024-03-23T11:06:38;6.50;1.00
12411;DHT22;6269;51.044;13.692;2024-03-23T11:12:33;6.60;99.90
12411;DHT22;6269;51.044;13.692;2024-03-23T11:15:11;6.60;1.00
12411;DHT22;6269;51.044;13.692;2024-03-23T11:18:02;6.50;1.00
12411;DHT22;6269;51.044;13.692;2024-03-23T11:20:36;6.80;99.90
12411;DHT22;6269;51.044;13.692;2024-03-23T11:23:27;7.30;1.00
12411;DHT22;6269;51.044;13.692;2024-03-23T11:26:00;7.60;99.90
12411;DHT22;6269;51.044;13.692;2024-03-23T11:28:37;7.70;1.00
12411;DHT22;6269;51.044;13.692;2024-03-23T11:31:15;7.80;1.00
12411;DHT22;6269;51.044;13.692;2024-03-23T11:34:04;8.10;99.90
12411;DHT22;6269;51.044;13.692;2024-03-23T11:37:05;8.10;1.00
12411;DHT22;6269;51.044;13.692;2024-03-23T11:39:54;7.00;1.00
12411;DHT22;6269;51.044;13.692;2024-03-23T11:42:29;6.40;1.00
12411;DHT22;6269;51.044;13.692;2024-03-23T11:45:07;7.60;99.90
12411;DHT22;6269;51.044;13.692;2024-03-23T11:47:40;7.60;1.00
12411;DHT22;6269;51.044;13.692;2024-03-23T11:50:19;7.60;1.00
12411;DHT22;6269;51.044;13.692;2024-03-23T11:52:51;7.80;1.00
12411;DHT22;6269;51.044;13.692;2024-03-23T11:55:25;8.00;1.00
12411;DHT22;6269;51.044;13.692;2024-03-23T11:58:06;8.30;1.00
12411;DHT22;6269;51.044;13.692;2024-03-23T12:00:56;8.60;1.00
12411;DHT22;6269;51.044;13.692;2024-03-23T12:03:29;8.40;1.00
12411;DHT22;6269;51.044;13.692;2024-03-23T12:06:10;8.60;1.00
12411;DHT22;6269;51.044;13.692;2024-03-23T12:08:53;8.90;1.00
12411;DHT22;6269;51.044;13.692;2024-03-23T12:11:58;9.50;99.90
12411;DHT22;6269;51.044;13.692;2024-03-23T12:14:42;8.80;99.90
12411;DHT22;6269;51.044;13.692;2024-03-23T12:17:15;10.60;20.30
12411;DHT22;6269;51.044;13.692;2024-03-23T12:19:49;10.30;13.80
12411;DHT22;6269;51.044;13.692;2024-03-23T12:22:23;10.10;99.90
12411;DHT22;6269;51.044;13.692;2024-03-23T12:24:55;9.50;2.00
12411;DHT22;6269;51.044;13.692;2024-03-23T12:27:30;9.30;99.90
12411;DHT22;6269;51.044;13.692;2024-03-23T12:30:03;9.60;99.90
12411;DHT22;6269;51.044;13.692;2024-03-23T12:32:42;10.60;55.00
12411;DHT22;6269;51.044;13.692;2024-03-23T12:35:14;12.20;1.00
12411;DHT22;6269;51.044;13.692;2024-03-23T12:37:46;11.20;1.00
12411;DHT22;6269;51.044;13.692;2024-03-23T12:40:18;10.50;1.00
12411;DHT22;6269;51.044;13.692;2024-03-23T12:42:52;10.70;1.00
12411;DHT22;6269;51.044;13.692;2024-03-23T12:45:24;11.10;1.00
12411;DHT22;6269;51.044;13.692;2024-03-23T12:47:56;11.50;1.00
12411;DHT22;6269;51.044;13.692;2024-03-23T12:50:28;11.90;1.00
12411;DHT22;6269;51.044;13.692;2024-03-23T12:52:59;12.00;1.00
12411;DHT22;6269;51.044;13.692;2024-03-23T12:55:34;11.90;1.00
12411;DHT22;6269;51.044;13.692;2024-03-23T12:58:09;10.80;1.00
12411;DHT22;6269;51.044;13.692;2024-03-23T13:00:41;10.00;1.00
12411;DHT22;6269;51.044;13.692;2024-03-23T13:03:13;9.60;1.00
12411;DHT22;6269;51.044;13.692;2024-03-23T13:05:51;9.30;1.00
12411;DHT22;6269;51.044;13.692;2024-03-23T13:08:23;9.20;1.00
12411;DHT22;6269;51.044;13.692;2024-03-23T13:10:55;8.80;23.60
12411;DHT22;6269;51.044;13.692;2024-03-23T13:13:29;9.30;99.90
12411;DHT22;6269;51.044;13.692;2024-03-23T13:16:02;8.60;99.90
12411;DHT22;6269;51.044;13.692;2024-03-23T13:18:35;8.60;99.90
12411;DHT22;6269;51.044;13.692;2024-03-23T13:21:06;8.80;99.90
12411;DHT22;6269;51.044;13.692;2024-03-23T13:23:38;8.90;99.90
12411;DHT22;6269;51.044;13.692;2024-03-23T13:26:11;8.70;1.60
12411;DHT22;6269;51.044;13.692;2024-03-23T13:28:45;8.70;19.40
12411;DHT22;6269;51.044;13.692;2024-03-23T13:31:17;8.70;68.00
12411;DHT22;6269;51.044;13.692;2024-03-23T13:33:54;8.90;31.60
12411;DHT22;6269;51.044;13.692;2024-03-23T13:36:31;9.00;34.20
12411;DHT22;6269;51.044;13.692;2024-03-23T13:39:12;8.80;45.10
12411;DHT22;6269;51.044;13.692;2024-03-23T13:41:52;8.10;99.90
12411;DHT22;6269;51.044;13.692;2024-03-23T13:44:35;9.20;99.90
12411;DHT22;6269;51.044;13.692;2024-03-23T13:47:17;9.10;1.00
12411;DHT22;6269;51.044;13.692;2024-03-23T13:49:56;10.30;1.00
12411;DHT22;6269;51.044;13.692;2024-03-23T13:52:49;11.40;1.00
12411;DHT22;6269;51.044;13.692;2024-03-23T13:55:22;13.00;1.00
12411;DHT22;6269;51.044;13.692;2024-03-23T13:57:54;14.70;99.90
12411;DHT22;6269;51.044;13.692;2024-03-23T14:00:35;15.10;99.90
12411;DHT22;6269;51.044;13.692;2024-03-23T14:03:06;14.00;99.90
12411;DHT22;6269;51.044;13.692;2024-03-23T14:05:39;12.90;99.90
12411;DHT22;6269;51.044;13.692;2024-03-23T14:08:14;12.60;99.90
12411;DHT22;6269;51.044;13.692;2024-03-23T14:10:48;11.80;99.90
12411;DHT22;6269;51.044;13.692;2024-03-23T14:13:19;11.10;99.90
12411;DHT22;6269;51.044;13.692;2024-03-23T14:16:01;10.60;99.90
12411;DHT22;6269;51.044;13.692;2024-03-23T14:18:33;11.40;1.00
12411;DHT22;6269;51.044;13.692;2024-03-23T14:21:05;10.70;1.00
12411;DHT22;6269;51.044;13.692;2024-03-23T14:23:37;11.20;1.00
12411;DHT22;6269;51.044;13.692;2024-03-23T14:26:08;11.60;1.00
12411;DHT22;6269;51.044;13.692;2024-03-23T14:28:40;11.30;99.90
12411;DHT22;6269;51.044;13.692;2024-03-23T14:31:14;11.30;99.90
12411;DHT22;6269;51.044;13.692;2024-03-23T14:33:46;11.40;99.90
12411;DHT22;6269;51.044;13.692;2024-03-23T14:36:18;11.30;99.90
12411;DHT22;6269;51.044;13.692;2024-03-23T14:38:50;11.60;99.90
12411;DHT22;6269;51.044;13.692;2024-03-23T14:41:22;12.70;99.90
12411;DHT22;6269;51.044;13.692;2024-03-23T14:43:53;13.90;99.90
12411;DHT22;6269;51.044;13.692;2024-03-23T14:46:28;14.30;99.90
12411;DHT22;6269;51.044;13.692;2024-03-23T14:49:01;13.70;99.90
12411;DHT22;6269;51.044;13.692;2024-03-23T14:51:36;12.70;99.90
12411;DHT22;6269;51.044;13.692;2024-03-23T14:54:07;11.80;99.90
12411;DHT22;6269;51.044;13.692;2024-03-23T14:56:46;11.50;99.90
12411;DHT22;6269;51.044;13.692;2024-03-23T14:59:18;11.40;99.90
12411;DHT22;6269;51.044;13.692;2024-03-23T15:01:53;11.10;99.90
12411;DHT22;6269;51.044;13.692;2024-03-23T15:04:25;10.80;99.90
12411;DHT22;6269;51.044;13.692;2024-03-23T15:06:57;10.60;99.90
12411;DHT22;6269;51.044;13.692;2024-03-23T15:09:29;10.40;99.90
12411;DHT22;6269;51.044;13.692;2024-03-23T15:12:01;10.30;99.90
12411;DHT22;6269;51.044;13.692;2024-03-23T15:14:32;10.30;1.00
12411;DHT22;6269;51.044;13.692;2024-03-23T15:17:07;10.30;1.00
12411;DHT22;6269;51.044;13.692;2024-03-23T15:19:39;10.40;1.00
12411;DHT22;6269;51.044;13.692;2024-03-23T15:22:18;10.70;1.00
12411;DHT22;6269;51.044;13.692;2024-03-23T15:24:53;11.10;1.00
12411;DHT22;6269;51.044;13.692;2024-03-23T15:27:33;11.00;99.90
12411;DHT22;6269;51.044;13.692;2024-03-23T15:30:24;10.80;99.90
12411;DHT22;6269;51.044;13.692;2024-03-23T15:32:58;10.60;99.90
12411;DHT22;6269;51.044;13.692;2024-03-23T15:35:30;10.30;1.00
12411;DHT22;6269;51.044;13.692;2024-03-23T15:38:02;10.30;1.00
12411;DHT22;6269;51.044;13.692;2024-03-23T15:40:34;10.20;1.00
12411;DHT22;6269;51.044;13.692;2024-03-23T15:43:06;10.30;1.00
12411;DHT22;6269;51.044;13.692;2024-03-23T15:45:38;10.20;1.00
12411;DHT22;6269;51.044;13.692;2024-03-23T15:48:12;10.20;1.00
12411;DHT22;6269;51.044;13.692;2024-03-23T15:50:50;10.00;1.00
12411;DHT22;6269;51.044;13.692;2024-03-23T15:53:25;9.90;1.00
12411;DHT22;6269;51.044;13.692;2024-03-23T15:55:58;9.80;1.00
12411;DHT22;6269;51.044;13.692;2024-03-23T15:58:31;9.70;1.00
12411;DHT22;6269;51.044;13.692;2024-03-23T16:01:05;9.60;1.00
12411;DHT22;6269;51.044;13.692;2024-03-23T16:03:39;9.50;1.00
12411;DHT22;6269;51.044;13.692;2024-03-23T16:06:11;9.50;1.00
12411;DHT22;6269;51.044;13.692;2024-03-23T16:08:43;9.40;1.00
12411;DHT22;6269;51.044;13.692;2024-03-23T16:11:15;9.30;1.00
12411;DHT22;6269;51.044;13.692;2024-03-23T16:13:47;9.20;1.00
12411;DHT22;6269;51.044;13.692;2024-03-23T16:16:19;9.20;1.00
12411;DHT22;6269;51.044;13.692;2024-03-23T16:18:53;9.10;1.00
12411;DHT22;6269;51.044;13.692;2024-03-23T16:21:25;8.90;1.00
12411;DHT22;6269;51.044;13.692;2024-03-23T16:23:57;8.40;1.00
12411;DHT22;6269;51.044;13.692;2024-03-23T16:26:28;8.10;1.00
12411;DHT22;6269;51.044;13.692;2024-03-23T16:29:00;7.90;99.90
12411;DHT22;6269;51.044;13.692;2024-03-23T16:31:32;7.90;99.90
12411;DHT22;6269;51.044;13.692;2024-03-23T16:34:07;7.80;99.90
12411;DHT22;6269;51.044;13.692;2024-03-23T16:36:38;7.60;1.00
12411;DHT22;6269;51.044;13.692;2024-03-23T16:39:12;7.60;1.00
12411;DHT22;6269;51.044;13.692;2024-03-23T16:41:44;7.60;1.00
12411;DHT22;6269;51.044;13.692;2024-03-23T16:44:16;7.40;1.00
12411;DHT22;6269;51.044;13.692;2024-03-23T16:46:50;7.30;1.00
12411;DHT22;6269;51.044;13.692;2024-03-23T16:49:25;7.20;1.00
12411;DHT22;6269;51.044;13.692;2024-03-23T16:51:56;7.10;1.00
12411;DHT22;6269;51.044;13.692;2024-03-23T16:54:28;7.10;1.00
12411;DHT22;6269;51.044;13.692;2024-03-23T16:57:00;7.10;1.00
12411;DHT22;6269;51.044;13.692;2024-03-23T16:59:31;7.90;1.00
12411;DHT22;6269;51.044;13.692;2024-03-23T17:02:03;7.00;99.90
12411;DHT22;6269;51.044;13.692;2024-03-23T17:04:38;7.00;1.00
12411;DHT22;6269;51.044;13.692;2024-03-23T17:07:10;7.00;1.00
12411;DHT22;6269;51.044;13.692;2024-03-23T17:09:47;7.00;1.00
12411;DHT22;6269;51.044;13.692;2024-03-23T17:12:18;7.00;1.00
12411;DHT22;6269;51.044;13.692;2024-03-23T17:14:51;7.00;1.00
12411;DHT22;6269;51.044;13.692;2024-03-23T17:17:22;7.00;1.00
12411;DHT22;6269;51.044;13.692;2024-03-23T17:20:04;7.10;1.00
12411;DHT22;6269;51.044;13.692;2024-03-23T17:22:39;7.10;1.00
12411;DHT22;6269;51.044;13.692;2024-03-23T17:25:11;7.10;1.00
12411;DHT22;6269;51.044;13.692;2024-03-23T17:27:42;7.10;1.00
12411;DHT22;6269;51.044;13.692;2024-03-23T17:30:15;7.20;1.00
12411;DHT22;6269;51.044;13.692;2024-03-23T17:32:54;7.00;1.00
12411;DHT22;6269;51.044;13.692;2024-03-23T17:35:29;7.00;1.00